Havbugvin — XPYL — position and weather

sailwx.info

Track history (hours):
 
Tides and Currents Weather Stations Pressure Air Temp Water Temp Dewpoint Dewpoint Depression Visibility Wind Speed Wind Dir Waves Ship Positions

Havbugvin

Last reported at 2014-Oct-25 20:33 UTC. Time now 2014-Oct-25 21:15 UTC.
Position N 62°00' W 006°46'.

Length 38 m.

Type: Fishing. MMSI: 231181000.

Date/timePositionNaut miles runAvg speedWind from/ knotsBaromVisibWave heightAir tempDewpointWater temp
2014-Oct-25 20:33N 62°00' W 006°46'0 0.0
2014-Oct-25 19:33N 62°00' W 006°46'0 0.0
2014-Oct-25 18:33N 62°00' W 006°46'0 0.0
2014-Oct-25 17:33N 62°00' W 006°46'0 0.0
2014-Oct-25 16:33N 62°00' W 006°46'0 0.0
2014-Oct-25 15:33N 62°00' W 006°46'0 0.0
2014-Oct-25 14:33N 62°00' W 006°46'0 0.0
2014-Oct-25 13:33N 62°00' W 006°46'0 0.0
2014-Oct-25 12:33N 62°00' W 006°46'0 0.0
2014-Oct-25 11:33N 62°00' W 006°46'0 0.0
2014-Oct-25 10:33N 62°00' W 006°46'0 0.0
2014-Oct-25 09:33N 62°00' W 006°46'0 0.0
2014-Oct-25 08:33N 62°00' W 006°46'0 0.0
2014-Oct-25 07:33N 62°00' W 006°46'0 0.0
2014-Oct-25 06:33N 62°00' W 006°46'0 0.0
2014-Oct-25 05:33N 62°00' W 006°46'0 0.0
2014-Oct-25 04:33N 62°00' W 006°46'0 0.0
2014-Oct-25 03:33N 62°00' W 006°46'0 0.0
2014-Oct-25 02:33N 62°00' W 006°46'0 0.0
2014-Oct-25 01:33N 62°00' W 006°46'0 0.0
2014-Oct-25 00:33N 62°00' W 006°46'0 0.0
2014-Oct-24 23:33N 62°00' W 006°46'0 0.0
2014-Oct-24 22:33N 62°00' W 006°46'0 0.0
2014-Oct-24 21:33N 62°00' W 006°46'0 0.0
2014-Oct-24 20:33N 62°00' W 006°46'0 0.0
2014-Oct-24 19:33N 62°00' W 006°46'0 0.0
2014-Oct-24 18:33N 62°00' W 006°46'0 0.0
2014-Oct-24 17:33N 62°00' W 006°46'0 0.0
2014-Oct-24 16:33N 62°00' W 006°46'0 0.0
2014-Oct-24 15:33N 62°00' W 006°46'0 0.0
2014-Oct-24 14:33N 62°00' W 006°46'0 0.0
2014-Oct-24 13:33N 62°00' W 006°46'0 0.0
2014-Oct-24 12:33N 62°00' W 006°46'0 0.0
2014-Oct-24 11:33N 62°00' W 006°46'0 0.1
2014-Oct-24 10:33N 62°00' W 006°46'0 0.0
2014-Oct-24 09:33N 62°00' W 006°46'0 0.0
2014-Oct-24 08:33N 62°00' W 006°46'0 0.0
2014-Oct-24 07:33N 62°00' W 006°46'0 0.0
2014-Oct-24 06:33N 62°00' W 006°46'0 0.0
2014-Oct-24 05:33N 62°00' W 006°46'0 0.0
2014-Oct-24 04:33N 62°00' W 006°46'0 0.0
2014-Oct-24 03:33N 62°00' W 006°46'0 0.0
2014-Oct-24 02:33N 62°00' W 006°46'0 0.0
2014-Oct-24 01:33N 62°00' W 006°46'0 0.0
2014-Oct-24 00:33N 62°00' W 006°46'0 0.0
2014-Oct-23 23:33N 62°00' W 006°46'0 0.0
2014-Oct-23 22:33N 62°00' W 006°46'0 0.0
2014-Oct-23 21:33N 62°00' W 006°46'0 0.0
2014-Oct-23 20:33N 62°00' W 006°46'0 0.0
2014-Oct-23 19:33N 62°00' W 006°46'0 0.0
2014-Oct-23 18:33N 62°00' W 006°46'0 0.0
2014-Oct-23 17:33N 62°00' W 006°46'0 0.0
2014-Oct-23 16:33N 62°00' W 006°46'0 0.0
2014-Oct-23 15:33N 62°00' W 006°46'7 7.0
2014-Oct-23 14:33N 61°54' W 006°40'9 8.5
2014-Oct-23 13:33N 61°46' W 006°38'6 6.3
2014-Oct-23 12:33N 61°39' W 006°39'7 7.5
2014-Oct-23 11:33N 61°32' W 006°44'3 2.6
2014-Oct-23 10:31N 61°30' W 006°40'  
2014-Oct-16 12:31N 61°27' W 006°40'2 1.6
2014-Oct-16 11:10N 61°29' W 006°41'  
Track history (hours):
 
Tides and Currents Weather Stations Pressure Air Temp Water Temp Dewpoint Dewpoint Depression Visibility Wind Speed Wind Dir Waves Ship Positions

Havbugvin

Last reported at 2014-Oct-25 20:33 UTC. Time now 2014-Oct-25 21:15 UTC.
Position N 62°00' W 006°46'.

Length 38 m.

Type: Fishing. MMSI: 231181000.

Date/timePositionNaut miles runAvg speedWind from/ knotsBaromVisibWave heightAir tempDewpointWater temp
2014-Oct-25 20:33N 62°00' W 006°46'0 0.0
2014-Oct-25 19:33N 62°00' W 006°46'0 0.0
2014-Oct-25 18:33N 62°00' W 006°46'0 0.0
2014-Oct-25 17:33N 62°00' W 006°46'0 0.0
2014-Oct-25 16:33N 62°00' W 006°46'0 0.0
2014-Oct-25 15:33N 62°00' W 006°46'0 0.0
2014-Oct-25 14:33N 62°00' W 006°46'0 0.0
2014-Oct-25 13:33N 62°00' W 006°46'0 0.0
2014-Oct-25 12:33N 62°00' W 006°46'0 0.0
2014-Oct-25 11:33N 62°00' W 006°46'0 0.0
2014-Oct-25 10:33N 62°00' W 006°46'0 0.0
2014-Oct-25 09:33N 62°00' W 006°46'0 0.0
2014-Oct-25 08:33N 62°00' W 006°46'0 0.0
2014-Oct-25 07:33N 62°00' W 006°46'0 0.0
2014-Oct-25 06:33N 62°00' W 006°46'0 0.0
2014-Oct-25 05:33N 62°00' W 006°46'0 0.0
2014-Oct-25 04:33N 62°00' W 006°46'0 0.0
2014-Oct-25 03:33N 62°00' W 006°46'0 0.0
2014-Oct-25 02:33N 62°00' W 006°46'0 0.0
2014-Oct-25 01:33N 62°00' W 006°46'0 0.0
2014-Oct-25 00:33N 62°00' W 006°46'0 0.0
2014-Oct-24 23:33N 62°00' W 006°46'0 0.0
2014-Oct-24 22:33N 62°00' W 006°46'0 0.0
2014-Oct-24 21:33N 62°00' W 006°46'0 0.0
2014-Oct-24 20:33N 62°00' W 006°46'0 0.0
2014-Oct-24 19:33N 62°00' W 006°46'0 0.0
2014-Oct-24 18:33N 62°00' W 006°46'0 0.0
2014-Oct-24 17:33N 62°00' W 006°46'0 0.0
2014-Oct-24 16:33N 62°00' W 006°46'0 0.0
2014-Oct-24 15:33N 62°00' W 006°46'0 0.0
2014-Oct-24 14:33N 62°00' W 006°46'0 0.0
2014-Oct-24 13:33N 62°00' W 006°46'0 0.0
2014-Oct-24 12:33N 62°00' W 006°46'0 0.0
2014-Oct-24 11:33N 62°00' W 006°46'0 0.1
2014-Oct-24 10:33N 62°00' W 006°46'0 0.0
2014-Oct-24 09:33N 62°00' W 006°46'0 0.0
2014-Oct-24 08:33N 62°00' W 006°46'0 0.0
2014-Oct-24 07:33N 62°00' W 006°46'0 0.0
2014-Oct-24 06:33N 62°00' W 006°46'0 0.0
2014-Oct-24 05:33N 62°00' W 006°46'0 0.0
2014-Oct-24 04:33N 62°00' W 006°46'0 0.0
2014-Oct-24 03:33N 62°00' W 006°46'0 0.0
2014-Oct-24 02:33N 62°00' W 006°46'0 0.0
2014-Oct-24 01:33N 62°00' W 006°46'0 0.0
2014-Oct-24 00:33N 62°00' W 006°46'0 0.0
2014-Oct-23 23:33N 62°00' W 006°46'0 0.0
2014-Oct-23 22:33N 62°00' W 006°46'0 0.0
2014-Oct-23 21:33N 62°00' W 006°46'0 0.0
2014-Oct-23 20:33N 62°00' W 006°46'0 0.0
2014-Oct-23 19:33N 62°00' W 006°46'0 0.0
2014-Oct-23 18:33N 62°00' W 006°46'0 0.0
2014-Oct-23 17:33N 62°00' W 006°46'0 0.0
2014-Oct-23 16:33N 62°00' W 006°46'0 0.0
2014-Oct-23 15:33N 62°00' W 006°46'7 7.0
2014-Oct-23 14:33N 61°54' W 006°40'9 8.5
2014-Oct-23 13:33N 61°46' W 006°38'6 6.3
2014-Oct-23 12:33N 61°39' W 006°39'7 7.5
2014-Oct-23 11:33N 61°32' W 006°44'3 2.6
2014-Oct-23 10:31N 61°30' W 006°40'  
2014-Oct-16 12:31N 61°27' W 006°40'2 1.6
2014-Oct-16 11:10N 61°29' W 006°41'  

Dump ship's entire track history